Main page
METAR-TAF:

METAR-TAF

Airports :

Hannover Airport

Hanover, Germany

latitude: 52-28N, longitude: 009-41E, elevation: 56 m

Current weather observation

The report was made 32 minutes ago, at 04:20 UTC
Wind 2 kt from the East
Temperature 9°C
Humidity 93%
Pressure 1023 hPa
Visibility 10 km or more
no clouds below 1500 m and no cumulonimbus

METAR: EDDV 200420Z AUTO 09002KT CAVOK 09/08 Q1023 NOSIG

Time: 06:52 (04:52 UTC)

Forecast

The report was made 5 hours and 52 minutes ago, at 23:00 UTC
Forecast valid from 20 at 00 UTC to 20 at 24 UTC
Wind 2 kt from variable directions
Visibility 10 km or more
Scattered clouds at a height of 2000 ft
Becoming
from 20 at 06 UTC to 20 at 08 UTC
Wind 8 kt from the East
Probability 30% :
Temporary
from 20 at 20 UTC to 20 at 24 UTC
Broken clouds at a height of 4000 ft, Towering cumulus.
rain showers,

TAF: EDDV 192300Z 2000/2024 VRB02KT 9999 SCT020 BECMG 2006/2008 09008KT PROB30 TEMPO 2020/2024 SHRA BKN040TCU

Weather observations and forecasts of more than 4000 airports (METAR and TAF reports).

The available stations are represented by yellow and red dots on the map.

Hover mouse over dot to see the name of the station.

Then click to see weather observations and forecasts.

To change the map : click on the green buttons with a black cross to zoom in, on the green button with a dash to zoom out, or on the green arrows for adjacent maps.


METAR-TAF: